Terminal Aerodrome Forecast
Issued by NWS Missoula, MT

Home | Current Version | Previous Version | Text Only | Print | Product List | Glossary On
Versions: 1 2 3 4 5 6 7 8 9 10 11 12 13 14
000
FTUS45 KMSO 061120
TAFBTM
TAF
KBTM 061120Z 0612/0712 VRB06KT P6SM FEW015 BKN025
      TEMPO 0615/0618 SCT025
     FM061800 35007KT P6SM SCT060=

USA.gov is the U.S. government's official web portal to all federal, state and local government web resources and services.